createdAt,value
2023-03-18T00:00:24.379Z,25.20
2023-03-18T00:02:57.723Z,25.20
2023-03-18T00:05:37.561Z,25.20
2023-03-18T00:08:13.367Z,25.20
2023-03-18T00:10:46.341Z,25.20
2023-03-18T00:13:21.564Z,25.20
2023-03-18T00:15:58.017Z,25.20
2023-03-18T00:18:32.130Z,25.10
2023-03-18T00:21:11.989Z,25.10
2023-03-18T00:23:45.401Z,25.20
2023-03-18T00:26:22.434Z,25.10
2023-03-18T00:29:01.067Z,25.20
2023-03-18T00:31:33.079Z,25.20
2023-03-18T00:34:10.899Z,25.10
2023-03-18T00:36:58.188Z,25.10
2023-03-18T00:39:34.614Z,25.10
2023-03-18T00:42:14.093Z,25.10
2023-03-18T00:44:54.325Z,25.20
2023-03-18T00:47:32.654Z,25.20
2023-03-18T00:50:07.471Z,25.20
2023-03-18T00:52:42.327Z,25.10
2023-03-18T00:55:17.716Z,25.20
2023-03-18T00:57:54.147Z,25.20
2023-03-18T01:00:27.603Z,25.20
2023-03-18T01:03:00.580Z,25.20
2023-03-18T01:05:33.466Z,25.20
2023-03-18T01:08:11.887Z,25.10
2023-03-18T01:10:46.913Z,25.10
2023-03-18T01:13:23.922Z,25.10
2023-03-18T01:16:03.327Z,25.10
2023-03-18T01:18:43.676Z,25.20
2023-03-18T01:21:24.292Z,25.10
2023-03-18T01:24:03.530Z,25.20
2023-03-18T01:26:43.180Z,25.10
2023-03-18T01:29:21.601Z,25.10
2023-03-18T01:31:59.273Z,25.10
2023-03-18T01:34:39.018Z,25.10
2023-03-18T01:37:17.085Z,25.10
2023-03-18T01:39:55.180Z,25.10
2023-03-18T01:42:31.663Z,25.20
2023-03-18T01:45:27.158Z,25.10
2023-03-18T01:48:10.627Z,25.10
2023-03-18T01:50:45.212Z,25.10
2023-03-18T01:53:23.436Z,25.10
2023-03-18T01:56:10.052Z,25.10
2023-03-18T01:58:49.276Z,25.10
2023-03-18T02:01:28.191Z,25.10
2023-03-18T02:04:03.970Z,25.10
2023-03-18T02:06:40.110Z,25.10
2023-03-18T02:09:16.658Z,25.10
2023-03-18T02:11:59.339Z,25.10
2023-03-18T02:14:35.745Z,25.10
2023-03-18T02:17:20.317Z,25.10
2023-03-18T02:20:12.964Z,25.10
2023-03-18T02:22:49.757Z,25.10
2023-03-18T02:25:38.960Z,25.10
2023-03-18T02:28:19.685Z,25.10
2023-03-18T02:30:56.302Z,25.10
2023-03-18T02:33:39.776Z,25.10
2023-03-18T02:36:27.368Z,25.10
2023-03-18T02:39:06.154Z,25.10
2023-03-18T02:41:42.387Z,25.10
2023-03-18T02:44:21.196Z,25.10
2023-03-18T02:47:02.096Z,25.10
2023-03-18T02:49:38.042Z,25.10
2023-03-18T02:52:11.616Z,25.10
2023-03-18T02:54:53.838Z,25.10
2023-03-18T02:57:29.506Z,25.10
2023-03-18T03:00:05.079Z,25.00
2023-03-18T03:02:42.246Z,25.10
2023-03-18T03:05:17.155Z,25.10
2023-03-18T03:07:53.619Z,25.10
2023-03-18T03:10:28.278Z,25.00
2023-03-18T03:13:10.649Z,25.10
2023-03-18T03:15:51.924Z,25.00
2023-03-18T03:18:32.500Z,25.10
2023-03-18T03:21:09.074Z,25.10
2023-03-18T03:23:45.515Z,25.10
2023-03-18T03:26:21.800Z,25.00
2023-03-18T03:28:58.389Z,25.10
2023-03-18T03:31:40.156Z,25.00
2023-03-18T03:34:14.063Z,25.00
2023-03-18T03:36:51.560Z,25.00
2023-03-18T03:39:28.244Z,25.00
2023-03-18T03:42:06.118Z,25.00
2023-03-18T03:44:46.913Z,25.00
2023-03-18T03:47:27.051Z,25.00
2023-03-18T03:50:02.198Z,25.00
2023-03-18T03:52:38.145Z,25.10
2023-03-18T03:55:14.319Z,25.00
2023-03-18T03:57:52.311Z,25.00
2023-03-18T04:00:29.254Z,25.00
2023-03-18T04:03:10.408Z,25.00
2023-03-18T04:05:48.182Z,25.00
2023-03-18T04:08:28.316Z,25.00
2023-03-18T04:11:07.341Z,25.00
2023-03-18T04:13:41.964Z,25.00
2023-03-18T04:16:18.630Z,25.00
2023-03-18T04:18:59.508Z,25.00
2023-03-18T04:21:32.092Z,25.00
2023-03-18T04:24:10.197Z,25.00
2023-03-18T04:26:45.943Z,25.00
2023-03-18T04:29:22.600Z,25.00
2023-03-18T04:32:01.849Z,25.00
2023-03-18T04:34:44.253Z,25.00
2023-03-18T04:37:23.034Z,25.00
2023-03-18T04:40:03.438Z,25.10
2023-03-18T04:42:45.233Z,25.00
2023-03-18T04:45:26.510Z,25.00
2023-03-18T04:48:03.757Z,25.00
2023-03-18T04:50:43.664Z,24.90
2023-03-18T04:53:21.244Z,25.00
2023-03-18T04:55:56.992Z,25.00
2023-03-18T04:58:35.295Z,25.00
2023-03-18T05:01:10.563Z,25.00
2023-03-18T05:03:46.843Z,25.00
2023-03-18T05:06:30.737Z,25.00
2023-03-18T05:09:10.590Z,25.00
2023-03-18T05:11:43.377Z,24.90
2023-03-18T05:14:24.546Z,25.00
2023-03-18T05:16:58.863Z,25.00
2023-03-18T05:19:34.597Z,25.00
2023-03-18T05:22:14.924Z,25.00
2023-03-18T05:24:50.172Z,24.90
2023-03-18T05:27:24.587Z,25.00
2023-03-18T05:29:57.840Z,24.90
2023-03-18T05:32:35.646Z,25.00
2023-03-18T05:35:14.142Z,25.00
2023-03-18T05:37:58.080Z,25.00
2023-03-18T05:40:38.675Z,24.90
2023-03-18T05:43:22.287Z,24.90
2023-03-18T05:46:08.014Z,24.90
2023-03-18T05:48:42.478Z,25.00
2023-03-18T05:51:16.591Z,25.00
2023-03-18T05:53:54.087Z,24.90
2023-03-18T05:56:36.076Z,25.00
2023-03-18T05:59:15.226Z,24.90
2023-03-18T06:01:49.838Z,24.90
2023-03-18T06:04:27.473Z,24.90
2023-03-18T06:07:01.748Z,24.90
2023-03-18T06:09:45.044Z,24.90
2023-03-18T06:12:25.846Z,24.90
2023-03-18T06:15:03.341Z,24.90
2023-03-18T06:17:36.652Z,24.90
2023-03-18T06:20:11.325Z,24.90
2023-03-18T06:22:52.843Z,24.90
2023-03-18T06:25:32.820Z,24.90
2023-03-18T06:28:12.436Z,24.90
2023-03-18T06:30:54.168Z,24.90
2023-03-18T06:33:30.182Z,24.90
2023-03-18T06:36:09.470Z,24.90
2023-03-18T06:38:47.115Z,25.00
2023-03-18T06:41:27.980Z,25.00
2023-03-18T06:44:02.920Z,25.00
2023-03-18T06:46:43.293Z,25.00
2023-03-18T06:49:19.346Z,25.00
2023-03-18T06:51:57.368Z,25.10
2023-03-18T06:54:37.795Z,25.10
2023-03-18T06:57:20.682Z,25.10
2023-03-18T06:59:58.524Z,25.10
2023-03-18T07:02:33.372Z,25.10
2023-03-18T07:05:05.411Z,25.10
2023-03-18T07:07:41.244Z,25.10
2023-03-18T07:10:19.882Z,25.10
2023-03-18T07:12:55.728Z,25.20
2023-03-18T07:15:35.180Z,25.20
2023-03-18T07:18:11.934Z,25.20
2023-03-18T07:20:49.156Z,25.30
2023-03-18T07:23:27.256Z,25.20
2023-03-18T07:26:05.598Z,25.20
2023-03-18T07:28:45.387Z,25.20
2023-03-18T07:31:20.798Z,25.20
2023-03-18T07:33:59.619Z,25.20
2023-03-18T07:36:38.886Z,25.20
2023-03-18T07:39:19.039Z,25.20
2023-03-18T07:41:57.400Z,25.20
2023-03-18T07:44:43.635Z,25.20
2023-03-18T07:47:19.507Z,25.20
2023-03-18T07:49:57.669Z,25.20
2023-03-18T07:52:38.388Z,25.30
2023-03-18T07:55:17.353Z,25.30
2023-03-18T07:57:50.905Z,25.30
2023-03-18T08:00:34.234Z,25.30
2023-03-18T08:03:09.254Z,25.30
2023-03-18T08:05:42.018Z,25.30
2023-03-18T08:08:18.384Z,25.40
2023-03-18T08:10:53.961Z,25.30
2023-03-18T08:13:26.511Z,25.40
2023-03-18T08:16:05.908Z,25.40
2023-03-18T08:18:39.760Z,25.40
2023-03-18T08:21:11.718Z,25.50
2023-03-18T08:23:44.210Z,25.50
2023-03-18T08:26:15.563Z,25.50
2023-03-18T08:28:47.079Z,25.50
2023-03-18T08:31:23.989Z,25.50
2023-03-18T08:33:59.852Z,25.50
2023-03-18T08:36:32.803Z,25.60
2023-03-18T08:39:04.707Z,25.60
2023-03-18T08:41:43.282Z,25.60
2023-03-18T08:44:18.318Z,25.60
2023-03-18T08:46:57.388Z,25.60
2023-03-18T08:49:28.619Z,25.60
2023-03-18T08:52:02.819Z,25.60
2023-03-18T08:54:38.028Z,25.60
2023-03-18T08:57:10.694Z,25.60
2023-03-18T08:59:42.950Z,25.70
2023-03-18T09:02:21.527Z,25.70
2023-03-18T09:04:59.335Z,25.70
2023-03-18T09:07:36.432Z,25.70
2023-03-18T09:10:11.724Z,25.70
2023-03-18T09:12:44.538Z,25.70
2023-03-18T09:15:23.011Z,25.70
2023-03-18T09:18:11.696Z,25.80
2023-03-18T09:20:47.050Z,25.80
2023-03-18T09:23:22.345Z,25.80
2023-03-18T09:25:57.504Z,25.80
2023-03-18T09:28:30.338Z,25.80
2023-03-18T09:31:06.338Z,25.80
2023-03-18T09:33:46.358Z,25.80
2023-03-18T09:36:21.851Z,25.90
2023-03-18T09:38:54.742Z,25.90
2023-03-18T09:41:38.875Z,25.90
2023-03-18T09:44:23.202Z,25.90
2023-03-18T09:47:20.615Z,25.90
2023-03-18T09:50:22.501Z,25.90
2023-03-18T09:53:04.557Z,26.00
2023-03-18T09:55:49.199Z,25.90
2023-03-18T09:58:32.589Z,26.00
2023-03-18T10:01:10.505Z,26.00
2023-03-18T10:03:48.080Z,26.10
2023-03-18T10:06:27.376Z,26.10
2023-03-18T10:09:12.753Z,26.10
2023-03-18T10:11:53.686Z,26.10
2023-03-18T10:14:42.126Z,26.10
2023-03-18T10:17:23.151Z,26.10
2023-03-18T10:19:59.390Z,26.10
2023-03-18T10:23:05.292Z,26.10
2023-03-18T10:25:41.675Z,26.20
2023-03-18T10:28:41.174Z,26.20
2023-03-18T10:31:32.355Z,26.20
2023-03-18T10:34:08.174Z,26.20
2023-03-18T10:36:48.259Z,26.30
2023-03-18T10:39:27.917Z,26.30
2023-03-18T10:42:03.355Z,26.30
2023-03-18T10:44:42.849Z,26.30
2023-03-18T10:47:21.131Z,26.30
2023-03-18T10:50:01.657Z,26.30
2023-03-18T10:52:44.303Z,26.30
2023-03-18T10:55:32.799Z,26.30
2023-03-18T10:58:23.177Z,26.40
2023-03-18T11:01:01.895Z,26.40
2023-03-18T11:03:41.402Z,26.40
2023-03-18T11:06:31.524Z,26.40
2023-03-18T11:09:17.309Z,26.40
2023-03-18T11:12:08.301Z,26.40
2023-03-18T11:14:45.698Z,26.50
2023-03-18T11:17:27.747Z,26.50
2023-03-18T11:20:10.255Z,26.50
2023-03-18T11:22:53.175Z,26.50
2023-03-18T11:25:34.716Z,26.60
2023-03-18T11:28:12.425Z,26.60
2023-03-18T11:30:54.805Z,26.60
2023-03-18T11:33:30.858Z,26.60
2023-03-18T11:36:07.589Z,26.70
2023-03-18T11:38:41.939Z,26.60
2023-03-18T11:41:19.717Z,26.70
2023-03-18T11:44:03.656Z,26.70
2023-03-18T11:46:42.480Z,26.70
2023-03-18T11:49:17.313Z,26.70
2023-03-18T11:52:00.986Z,26.70
2023-03-18T11:55:16.343Z,26.70
2023-03-18T11:58:20.447Z,26.80
2023-03-18T12:01:13.705Z,26.80
2023-03-18T12:04:15.881Z,26.70
2023-03-18T12:07:07.814Z,26.80
2023-03-18T12:09:49.978Z,26.80
2023-03-18T12:12:44.633Z,26.80
2023-03-18T12:15:32.765Z,26.80
2023-03-18T12:18:28.766Z,26.80
2023-03-18T12:21:11.918Z,26.80
2023-03-18T12:24:11.931Z,26.70
2023-03-18T12:27:02.614Z,26.80
2023-03-18T12:30:02.939Z,26.80
2023-03-18T12:32:47.239Z,26.80
2023-03-18T12:35:42.113Z,26.80
2023-03-18T12:39:06.891Z,26.80
2023-03-18T12:41:55.033Z,26.80
2023-03-18T12:44:42.457Z,26.90
2023-03-18T12:47:22.816Z,26.90
2023-03-18T12:50:00.294Z,26.90
2023-03-18T12:52:47.446Z,26.90
2023-03-18T12:55:29.856Z,26.80
2023-03-18T12:58:09.195Z,26.90
2023-03-18T13:00:50.441Z,26.90
2023-03-18T13:03:37.679Z,26.90
2023-03-18T13:06:19.547Z,26.90
2023-03-18T13:09:21.114Z,26.90
2023-03-18T13:12:18.264Z,26.90
2023-03-18T13:15:13.018Z,26.90
2023-03-18T13:17:50.886Z,26.90
2023-03-18T13:20:32.523Z,26.90
2023-03-18T13:23:20.717Z,26.90
2023-03-18T13:26:17.254Z,26.90
2023-03-18T13:29:08.030Z,27.00
2023-03-18T13:31:58.033Z,26.90
2023-03-18T13:35:06.824Z,27.00
2023-03-18T13:38:17.921Z,27.00
2023-03-18T13:41:34.427Z,27.00
2023-03-18T13:44:23.397Z,27.00
2023-03-18T13:47:07.449Z,27.00
2023-03-18T13:49:49.070Z,27.00
2023-03-18T13:52:36.661Z,27.00
2023-03-18T13:55:27.264Z,27.00
2023-03-18T13:58:27.480Z,27.00
2023-03-18T14:01:34.531Z,27.00
2023-03-18T14:04:37.668Z,26.90
2023-03-18T14:07:22.105Z,27.00
2023-03-18T14:10:17.164Z,27.00
2023-03-18T14:12:54.904Z,27.00
2023-03-18T14:16:02.338Z,27.00
2023-03-18T14:18:42.384Z,27.00
2023-03-18T14:21:30.617Z,27.00
2023-03-18T14:24:19.498Z,27.00
2023-03-18T14:27:20.320Z,27.00
2023-03-18T14:30:00.359Z,27.00
2023-03-18T14:32:49.917Z,27.00
2023-03-18T14:35:35.900Z,27.00
2023-03-18T14:38:19.551Z,27.00
2023-03-18T14:40:57.448Z,27.00
2023-03-18T14:43:36.170Z,27.00
2023-03-18T14:46:14.459Z,27.00
2023-03-18T14:49:00.686Z,27.00
2023-03-18T14:51:46.254Z,27.00
2023-03-18T14:54:33.054Z,27.00
2023-03-18T14:57:11.206Z,27.00
2023-03-18T14:59:45.799Z,27.00
2023-03-18T15:02:30.179Z,27.00
2023-03-18T15:05:15.694Z,27.00
2023-03-18T15:07:52.695Z,27.00
2023-03-18T15:10:32.463Z,27.00
2023-03-18T15:13:13.435Z,27.00
2023-03-18T15:15:50.831Z,26.90
2023-03-18T15:18:34.047Z,27.00
2023-03-18T15:21:18.189Z,26.90
2023-03-18T15:23:54.668Z,26.90
2023-03-18T15:26:31.982Z,26.90
2023-03-18T15:29:30.786Z,26.90
2023-03-18T15:32:25.233Z,26.90
2023-03-18T15:35:02.564Z,26.90
2023-03-18T15:37:51.287Z,26.90
2023-03-18T15:40:38.283Z,26.90
2023-03-18T15:43:22.322Z,26.90
2023-03-18T15:46:02.865Z,26.90
2023-03-18T15:48:40.802Z,26.90
2023-03-18T15:51:29.093Z,26.90
2023-03-18T15:54:11.974Z,26.90
2023-03-18T15:56:55.193Z,26.90
2023-03-18T15:59:31.376Z,26.90
2023-03-18T16:02:08.321Z,26.90
2023-03-18T16:04:46.021Z,26.90
2023-03-18T16:07:24.021Z,26.90
2023-03-18T16:09:59.476Z,26.90
2023-03-18T16:12:34.003Z,26.90
2023-03-18T16:15:09.400Z,26.90
2023-03-18T16:17:43.880Z,26.90
2023-03-18T16:20:22.806Z,26.80
2023-03-18T16:22:53.239Z,26.80
2023-03-18T16:25:34.811Z,26.80
2023-03-18T16:28:10.642Z,26.80
2023-03-18T16:30:45.270Z,26.80
2023-03-18T16:33:19.858Z,26.80
2023-03-18T16:36:04.203Z,26.70
2023-03-18T16:38:42.142Z,26.70
2023-03-18T16:41:16.982Z,26.70
2023-03-18T16:43:53.273Z,26.70
2023-03-18T16:46:25.988Z,26.70
2023-03-18T16:49:02.569Z,26.70
2023-03-18T16:51:35.577Z,26.70
2023-03-18T16:54:12.047Z,26.70
2023-03-18T16:56:47.329Z,26.60
2023-03-18T16:59:19.996Z,26.60
2023-03-18T17:01:59.808Z,26.60
2023-03-18T17:04:35.425Z,26.60
2023-03-18T17:07:08.137Z,26.60
2023-03-18T17:09:43.692Z,26.60
2023-03-18T17:12:20.194Z,26.60
2023-03-18T17:14:57.148Z,26.50
2023-03-18T17:17:37.079Z,26.50
2023-03-18T17:20:22.410Z,26.50
2023-03-18T17:22:54.931Z,26.40
2023-03-18T17:25:32.973Z,26.50
2023-03-18T17:28:15.243Z,26.50
2023-03-18T17:30:49.421Z,26.40
2023-03-18T17:33:27.988Z,26.40
2023-03-18T17:36:02.920Z,26.40
2023-03-18T17:38:39.384Z,26.40
2023-03-18T17:41:19.761Z,26.40
2023-03-18T17:43:54.133Z,26.40
2023-03-18T17:46:29.451Z,26.40
2023-03-18T17:49:09.249Z,26.40
2023-03-18T17:51:48.797Z,26.40
2023-03-18T17:54:27.099Z,26.40
2023-03-18T17:57:05.210Z,26.30
2023-03-18T17:59:50.077Z,26.30
2023-03-18T18:02:26.838Z,26.30
2023-03-18T18:05:08.322Z,26.30
2023-03-18T18:07:41.204Z,26.30
2023-03-18T18:10:16.442Z,26.30
2023-03-18T18:12:52.809Z,26.30
2023-03-18T18:15:34.054Z,26.20
2023-03-18T18:18:16.091Z,26.30
2023-03-18T18:20:51.350Z,26.30
2023-03-18T18:23:30.658Z,26.20
2023-03-18T18:26:06.925Z,26.20
2023-03-18T18:28:42.678Z,26.20
2023-03-18T18:31:24.382Z,26.20
2023-03-18T18:34:01.060Z,26.20
2023-03-18T18:36:33.264Z,26.20
2023-03-18T18:39:06.937Z,26.20
2023-03-18T18:41:45.115Z,26.20
2023-03-18T18:44:25.800Z,26.20
2023-03-18T18:46:59.435Z,26.10
2023-03-18T18:49:35.352Z,26.10
2023-03-18T18:52:19.461Z,26.10
2023-03-18T18:54:57.694Z,26.10
2023-03-18T18:57:32.592Z,26.10
2023-03-18T19:00:12.321Z,26.10
2023-03-18T19:02:52.626Z,26.10
2023-03-18T19:05:27.455Z,26.10
2023-03-18T19:08:07.779Z,26.10
2023-03-18T19:10:44.315Z,26.10
2023-03-18T19:13:20.552Z,26.10
2023-03-18T19:15:54.194Z,26.00
2023-03-18T19:18:31.877Z,26.00
2023-03-18T19:21:07.351Z,26.00
2023-03-18T19:23:44.983Z,26.00
2023-03-18T19:26:26.372Z,26.10
2023-03-18T19:29:05.296Z,26.00
2023-03-18T19:31:42.600Z,26.10
2023-03-18T19:34:23.355Z,26.00
2023-03-18T19:36:59.584Z,26.00
2023-03-18T19:39:35.676Z,26.00
2023-03-18T19:42:10.350Z,26.00
2023-03-18T19:44:44.400Z,26.00
2023-03-18T19:47:26.259Z,25.90
2023-03-18T19:50:06.843Z,26.00
2023-03-18T19:52:41.266Z,26.00
2023-03-18T19:55:26.044Z,26.00
2023-03-18T19:58:01.588Z,25.90
2023-03-18T20:00:36.903Z,26.00
2023-03-18T20:03:17.960Z,26.00
2023-03-18T20:05:58.602Z,25.90
2023-03-18T20:08:37.608Z,25.90
2023-03-18T20:11:21.295Z,25.90
2023-03-18T20:13:54.592Z,25.90
2023-03-18T20:16:31.438Z,25.90
2023-03-18T20:19:04.183Z,25.90
2023-03-18T20:21:39.218Z,25.90
2023-03-18T20:24:18.757Z,25.90
2023-03-18T20:26:50.278Z,25.90
2023-03-18T20:29:29.983Z,25.80
2023-03-18T20:32:09.499Z,25.90
2023-03-18T20:34:44.171Z,25.90
2023-03-18T20:37:33.776Z,25.80
2023-03-18T20:40:08.463Z,25.80
2023-03-18T20:42:47.254Z,25.80
2023-03-18T20:45:20.463Z,25.80
2023-03-18T20:47:55.974Z,25.80
2023-03-18T20:50:35.470Z,25.80
2023-03-18T20:53:18.603Z,25.80
2023-03-18T20:55:52.874Z,25.80
2023-03-18T20:58:31.063Z,25.80
2023-03-18T21:01:07.711Z,25.80
2023-03-18T21:03:46.145Z,25.80
2023-03-18T21:06:23.140Z,25.80
2023-03-18T21:09:00.730Z,25.80
2023-03-18T21:11:39.152Z,25.80
2023-03-18T21:14:14.939Z,25.80
2023-03-18T21:16:50.283Z,25.80
2023-03-18T21:19:29.695Z,25.80
2023-03-18T21:22:01.968Z,25.80
2023-03-18T21:24:37.106Z,25.80
2023-03-18T21:27:20.915Z,25.70
2023-03-18T21:29:55.638Z,25.80
2023-03-18T21:32:32.944Z,25.70
2023-03-18T21:35:07.742Z,25.80
2023-03-18T21:37:42.635Z,25.70
2023-03-18T21:40:26.386Z,25.70
2023-03-18T21:43:01.056Z,25.70
2023-03-18T21:45:36.553Z,25.70
2023-03-18T21:48:11.863Z,25.70
2023-03-18T21:50:48.942Z,25.70
2023-03-18T21:53:23.939Z,25.70
2023-03-18T21:56:02.353Z,25.70
2023-03-18T21:58:38.426Z,25.70
2023-03-18T22:01:11.535Z,25.70
2023-03-18T22:03:46.433Z,25.70
2023-03-18T22:06:21.212Z,25.70
2023-03-18T22:08:56.452Z,25.70
2023-03-18T22:11:36.101Z,25.70
2023-03-18T22:14:12.933Z,25.70
2023-03-18T22:16:45.097Z,25.70
2023-03-18T22:19:18.533Z,25.70
2023-03-18T22:21:52.012Z,25.70
2023-03-18T22:24:26.056Z,25.70
2023-03-18T22:26:59.102Z,25.60
2023-03-18T22:29:35.564Z,25.70
2023-03-18T22:32:15.304Z,25.70
2023-03-18T22:34:53.561Z,25.70
2023-03-18T22:37:30.051Z,25.60
2023-03-18T22:40:02.652Z,25.70
2023-03-18T22:42:40.274Z,25.60
2023-03-18T22:45:29.932Z,25.60
2023-03-18T22:48:05.046Z,25.60
2023-03-18T22:50:38.197Z,25.60
2023-03-18T22:53:16.306Z,25.60
2023-03-18T22:55:47.713Z,25.60
2023-03-18T22:58:36.093Z,25.60
2023-03-18T23:01:09.257Z,25.60
2023-03-18T23:03:44.231Z,25.60
2023-03-18T23:06:21.437Z,25.60
2023-03-18T23:08:53.627Z,25.60
2023-03-18T23:11:27.852Z,25.60
2023-03-18T23:14:06.051Z,25.60
2023-03-18T23:16:38.740Z,25.60
2023-03-18T23:19:12.872Z,25.60
2023-03-18T23:21:46.788Z,25.60
2023-03-18T23:24:23.417Z,25.60
2023-03-18T23:26:55.573Z,25.60
2023-03-18T23:29:38.322Z,25.60
2023-03-18T23:32:13.062Z,25.50
2023-03-18T23:34:46.380Z,25.60
2023-03-18T23:37:24.048Z,25.50
2023-03-18T23:40:01.564Z,25.60
2023-03-18T23:42:35.456Z,25.60
2023-03-18T23:45:13.288Z,25.50
2023-03-18T23:47:50.084Z,25.50
2023-03-18T23:50:25.387Z,25.50
2023-03-18T23:53:00.608Z,25.50
2023-03-18T23:55:35.821Z,25.50
2023-03-18T23:58:19.266Z,25.50
